Time;durP1;ratioP1;P1;durP2;ratioP2;P2;SDS_P1;SDS_P2;PMS_P1;PMS_P2;Temp;Humidity;BMP_temperature;BMP_pressure;BME280_temperature;BME280_humidity;BME280_pressure;Samples;Min_cycle;Max_cycle;Signal;HPM_P1;HPM_P2
2021/03/20 12:57:46;;;;;;;2.45;1.00;;;;;;;;;;5158717;27;20328;-74
2021/03/20 13:00:17;;;;;;;2.75;0.90;;;;;;;;;;5145923;27;20027;-73
2021/03/20 13:02:44;;;;;;;2.10;1.20;;;;;;;;;;5138749;27;20019;-73
2021/03/20 13:05:30;;;;;;;1.45;0.90;;;;;;;;;;5132700;27;20447;-73
2021/03/20 13:07:56;;;;;;;1.98;0.98;;;;;;;;;;5142825;27;20027;-73
2021/03/20 13:10:23;;;;;;;2.35;1.13;;;;;;;;;;5141195;27;20031;-73
2021/03/20 13:12:49;;;;;;;2.60;1.45;;;;;;;;;;5139649;27;20052;-74
2021/03/20 13:15:15;;;;;;;1.85;1.30;;;;;;;;;;5130284;27;20156;-74
2021/03/20 13:17:41;;;;;;;4.78;1.80;;;;;;;;;;5141043;27;20027;-73
2021/03/20 13:20:08;;;;;;;3.08;1.17;;;;;;;;;;5133577;27;20011;-73
2021/03/20 13:22:34;;;;;;;3.45;1.70;;;;;;;;;;5143233;27;20015;-73
2021/03/20 13:25:01;;;;;;;2.30;1.25;;;;;;;;;;5145472;27;20023;-73
2021/03/20 13:27:27;;;;;;;2.90;1.75;;;;;;;;;;5141823;27;20034;-74
2021/03/20 13:29:54;;;;;;;6.10;1.40;;;;;;;;;;5143772;27;20034;-74
2021/03/20 13:32:20;;;;;;;2.90;1.10;;;;;;;;;;5141785;27;20465;-73
2021/03/20 13:34:46;;;;;;;1.75;1.20;;;;;;;;;;5144281;27;20036;-73
2021/03/20 13:37:12;;;;;;;2.08;1.30;;;;;;;;;;5137387;27;20028;-74
2021/03/20 13:39:38;;;;;;;2.70;1.20;;;;;;;;;;5136981;27;20391;-73
2021/03/20 13:42:04;;;;;;;2.80;1.38;;;;;;;;;;5127905;27;20019;-74
2021/03/20 13:44:31;;;;;;;3.70;1.80;;;;;;;;;;5140598;27;21143;-74
2021/03/20 13:46:57;;;;;;;2.30;1.20;;;;;;;;;;5143426;27;20076;-74
2021/03/20 13:49:23;;;;;;;2.38;1.20;;;;;;;;;;5134880;27;20023;-74
2021/03/20 13:51:49;;;;;;;3.15;1.40;;;;;;;;;;5144092;27;20114;-74
2021/03/20 13:54:15;;;;;;;2.47;1.23;;;;;;;;;;5143629;27;20106;-74
2021/03/20 13:56:41;;;;;;;1.80;1.17;;;;;;;;;;5148484;27;20530;-76
2021/03/20 13:59:07;;;;;;;3.97;1.48;;;;;;;;;;5132782;27;20487;-74
2021/03/20 14:01:33;;;;;;;3.97;1.38;;;;;;;;;;5144554;27;20023;-74
2021/03/20 14:03:59;;;;;;;2.05;1.20;;;;;;;;;;5137155;27;20023;-74
2021/03/20 14:06:26;;;;;;;1.40;0.88;;;;;;;;;;5132881;27;20114;-74
2021/03/20 14:08:53;;;;;;;1.65;1.08;;;;;;;;;;5126961;27;20035;-75
2021/03/20 14:11:19;;;;;;;2.08;1.10;;;;;;;;;;5122655;27;20120;-76
2021/03/20 14:13:45;;;;;;;2.67;1.10;;;;;;;;;;5113076;27;20028;-79
2021/03/20 14:16:11;;;;;;;2.60;1.25;;;;;;;;;;5122604;27;20045;-79
2021/03/20 14:18:37;;;;;;;3.00;1.70;;;;;;;;;;5124797;27;20579;-76
2021/03/20 14:21:04;;;;;;;2.38;1.15;;;;;;;;;;5121632;27;20034;-75
2021/03/20 14:23:31;;;;;;;2.10;1.20;;;;;;;;;;5119763;27;20023;-76
2021/03/20 14:25:57;;;;;;;6.45;1.30;;;;;;;;;;5124735;27;20129;-76
2021/03/20 14:28:28;;;;;;;2.90;1.60;;;;;;;;;;5119780;27;20068;-75
2021/03/20 14:30:55;;;;;;;3.28;1.50;;;;;;;;;;5124643;27;20023;-75
2021/03/20 14:33:22;;;;;;;2.88;1.27;;;;;;;;;;5120817;27;20012;-77
2021/03/20 14:35:49;;;;;;;2.47;1.70;;;;;;;;;;5125985;27;20076;-74
2021/03/20 14:38:16;;;;;;;3.53;1.45;;;;;;;;;;5125459;27;20020;-75
2021/03/20 14:40:43;;;;;;;3.28;1.40;;;;;;;;;;5130950;27;20062;-76
2021/03/20 14:43:10;;;;;;;2.58;1.38;;;;;;;;;;5125669;27;20495;-77
2021/03/20 14:45:36;;;;;;;2.97;1.40;;;;;;;;;;5125407;27;20037;-82
2021/03/20 14:48:02;;;;;;;5.68;1.60;;;;;;;;;;5120540;27;20047;-82
2021/03/20 14:50:29;;;;;;;3.05;1.27;;;;;;;;;;5131116;27;20109;-82
2021/03/20 14:52:56;;;;;;;3.13;1.13;;;;;;;;;;5131027;27;20023;-76
2021/03/20 14:55:23;;;;;;;4.00;1.58;;;;;;;;;;5128663;27;20015;-78
2021/03/20 14:57:49;;;;;;;3.00;1.17;;;;;;;;;;5125931;27;20527;-78
2021/03/20 15:00:19;;;;;;;2.47;1.35;;;;;;;;;;5116986;27;20031;-77
2021/03/20 15:02:45;;;;;;;4.63;1.52;;;;;;;;;;5121900;27;20076;-77
2021/03/20 15:05:11;;;;;;;3.58;1.27;;;;;;;;;;5122234;27;20023;-77
2021/03/20 15:07:37;;;;;;;3.05;1.60;;;;;;;;;;5125482;27;20075;-79
2021/03/20 15:10:06;;;;;;;3.47;1.67;;;;;;;;;;5135578;27;20023;-82
2021/03/20 15:12:32;;;;;;;4.18;2.13;;;;;;;;;;5118230;27;20031;-78
2021/03/20 15:14:58;;;;;;;1.90;1.10;;;;;;;;;;5125630;27;20713;-80
2021/03/20 15:17:24;;;;;;;2.53;1.20;;;;;;;;;;5117346;27;20020;-79
2021/03/20 15:19:50;;;;;;;2.63;1.50;;;;;;;;;;5124931;27;20035;-79
2021/03/20 15:22:16;;;;;;;2.28;1.40;;;;;;;;;;5122867;27;20030;-78
2021/03/20 15:24:42;;;;;;;3.80;1.02;;;;;;;;;;5126252;27;20023;-78
2021/03/20 15:27:08;;;;;;;1.92;1.13;;;;;;;;;;5114768;27;20506;-78
2021/03/20 15:29:34;;;;;;;1.65;0.90;;;;;;;;;;5119852;27;20388;-78
2021/03/20 15:32:00;;;;;;;1.75;1.20;;;;;;;;;;5107153;27;20031;-78
2021/03/20 15:34:26;;;;;;;3.30;1.10;;;;;;;;;;5109269;27;20035;-77
2021/03/20 15:36:52;;;;;;;2.72;1.20;;;;;;;;;;5130791;27;20023;-80
2021/03/20 15:39:18;;;;;;;1.90;0.90;;;;;;;;;;5129182;27;20381;-77
2021/03/20 15:41:45;;;;;;;4.03;1.40;;;;;;;;;;5127103;27;20022;-78
2021/03/20 15:44:11;;;;;;;2.08;1.08;;;;;;;;;;5120875;27;20030;-79
2021/03/20 15:46:37;;;;;;;3.08;1.20;;;;;;;;;;5127699;27;20031;-78
2021/03/20 15:49:03;;;;;;;2.22;1.02;;;;;;;;;;5121466;27;20074;-77
2021/03/20 15:51:29;;;;;;;2.53;1.33;;;;;;;;;;5123057;27;20032;-73
2021/03/20 15:53:55;;;;;;;1.92;1.00;;;;;;;;;;5123483;27;20027;-75
2021/03/20 15:56:21;;;;;;;3.17;1.20;;;;;;;;;;5118213;27;20031;-76
2021/03/20 15:58:48;;;;;;;9.32;1.50;;;;;;;;;;5127692;27;20072;-76
2021/03/20 16:01:15;;;;;;;2.08;1.20;;;;;;;;;;5111754;27;20034;-78
2021/03/20 16:03:41;;;;;;;2.80;1.10;;;;;;;;;;5122729;27;20119;-77
2021/03/20 16:06:09;;;;;;;4.25;1.35;;;;;;;;;;5128966;27;20034;-77
2021/03/20 16:08:38;;;;;;;1.67;1.10;;;;;;;;;;5126501;27;20105;-78
2021/03/20 16:11:05;;;;;;;2.65;1.40;;;;;;;;;;5125656;27;20016;-78
2021/03/20 16:13:32;;;;;;;1.67;0.90;;;;;;;;;;5111742;27;20047;-78
2021/03/20 16:16:01;;;;;;;3.85;1.55;;;;;;;;;;5127297;27;20107;-78
2021/03/20 16:18:28;;;;;;;5.03;2.10;;;;;;;;;;5124347;27;20023;-78
2021/03/20 16:20:56;;;;;;;11.77;5.72;;;;;;;;;;5124267;27;20042;-79
2021/03/20 16:23:24;;;;;;;3.28;1.38;;;;;;;;;;5116865;27;20019;-78
2021/03/20 16:25:50;;;;;;;3.28;1.10;;;;;;;;;;5116425;27;20044;-79
2021/03/20 16:28:24;;;;;;;3.88;1.98;;;;;;;;;;5121343;27;20459;-78
2021/03/20 16:30:51;;;;;;;2.03;1.00;;;;;;;;;;5121428;27;20418;-78
2021/03/20 16:33:19;;;;;;;1.52;1.02;;;;;;;;;;5122485;27;20094;-78
2021/03/20 16:35:45;;;;;;;3.83;1.50;;;;;;;;;;5114380;27;20023;-76
2021/03/20 16:38:12;;;;;;;8.27;3.45;;;;;;;;;;5126018;27;20058;-77
2021/03/20 16:40:39;;;;;;;2.92;1.20;;;;;;;;;;5124226;27;20024;-74
2021/03/20 16:43:06;;;;;;;2.03;0.95;;;;;;;;;;5124449;27;20015;-76
2021/03/20 16:45:33;;;;;;;2.83;1.60;;;;;;;;;;5123390;27;20019;-74
2021/03/20 16:47:59;;;;;;;2.65;1.40;;;;;;;;;;5121775;27;20075;-75
2021/03/20 16:50:26;;;;;;;3.05;1.10;;;;;;;;;;5132231;27;20023;-74
2021/03/20 16:52:53;;;;;;;3.63;1.48;;;;;;;;;;5127293;27;20569;-77
2021/03/20 16:55:20;;;;;;;3.88;1.23;;;;;;;;;;5123401;27;20051;-76
2021/03/20 16:57:46;;;;;;;2.85;1.17;;;;;;;;;;5118295;28;20110;-78
2021/03/20 17:00:19;;;;;;;2.08;1.10;;;;;;;;;;5124014;28;20016;-78
2021/03/20 17:02:45;;;;;;;2.03;1.17;;;;;;;;;;5126048;28;20051;-75
2021/03/20 17:05:11;;;;;;;1.92;1.15;;;;;;;;;;5124909;28;20072;-77
2021/03/20 17:07:37;;;;;;;4.93;1.00;;;;;;;;;;5123498;28;20483;-78
2021/03/20 17:10:04;;;;;;;4.45;1.17;;;;;;;;;;5129255;28;20034;-76
2021/03/20 17:12:30;;;;;;;4.13;2.33;;;;;;;;;;5121030;28;20146;-75
2021/03/20 17:14:56;;;;;;;3.80;1.55;;;;;;;;;;5117812;28;20183;-76
2021/03/20 17:17:22;;;;;;;2.00;1.35;;;;;;;;;;5127606;27;20060;-77
2021/03/20 17:19:48;;;;;;;8.80;4.60;;;;;;;;;;5126356;28;20020;-75
2021/03/20 17:22:14;;;;;;;5.38;1.95;;;;;;;;;;5122066;28;20024;-76
2021/03/20 17:24:40;;;;;;;3.88;1.90;;;;;;;;;;5113769;28;20023;-75
2021/03/20 17:27:06;;;;;;;4.03;2.22;;;;;;;;;;5129911;28;20433;-73
2021/03/20 17:29:32;;;;;;;2.88;1.30;;;;;;;;;;5130791;27;20111;-75
2021/03/20 17:31:59;;;;;;;4.18;1.30;;;;;;;;;;5116095;28;20030;-77
2021/03/20 17:34:25;;;;;;;6.47;2.03;;;;;;;;;;5124878;28;20026;-76
2021/03/20 17:36:51;;;;;;;4.00;1.67;;;;;;;;;;5118156;28;20094;-76
2021/03/20 17:39:17;;;;;;;24.83;8.73;;;;;;;;;;5118494;28;20379;-77
2021/03/20 17:41:43;;;;;;;36.90;15.75;;;;;;;;;;5120093;27;20023;-76
2021/03/20 17:44:09;;;;;;;11.13;4.10;;;;;;;;;;5128348;27;20083;-76
2021/03/20 17:46:35;;;;;;;7.63;2.95;;;;;;;;;;5123826;27;20043;-75
2021/03/20 17:49:01;;;;;;;5.82;2.70;;;;;;;;;;5126670;27;20038;-75
2021/03/20 17:51:27;;;;;;;8.13;5.50;;;;;;;;;;5134679;27;20031;-76
2021/03/20 17:53:53;;;;;;;10.70;5.82;;;;;;;;;;5123424;27;20043;-76
2021/03/20 17:56:19;;;;;;;3.40;2.15;;;;;;;;;;5131773;27;20038;-80
2021/03/20 17:58:45;;;;;;;3.95;2.17;;;;;;;;;;5116760;27;20034;-76
2021/03/20 18:01:13;;;;;;;3.40;1.98;;;;;;;;;;5130603;27;20024;-75
2021/03/20 18:03:39;;;;;;;6.43;2.38;;;;;;;;;;5129477;27;20098;-74
2021/03/20 18:06:06;;;;;;;4.82;2.65;;;;;;;;;;5129528;27;20043;-76
2021/03/20 18:08:32;;;;;;;5.80;3.00;;;;;;;;;;5130377;27;20023;-75
2021/03/20 18:11:00;;;;;;;6.13;2.80;;;;;;;;;;5117956;27;20079;-77
2021/03/20 18:13:26;;;;;;;7.85;3.70;;;;;;;;;;5119038;27;20114;-76
2021/03/20 18:15:53;;;;;;;8.13;3.13;;;;;;;;;;5123489;27;20028;-76
2021/03/20 18:18:22;;;;;;;5.88;2.80;;;;;;;;;;5130045;27;20016;-75
2021/03/20 18:20:48;;;;;;;4.88;2.70;;;;;;;;;;5130182;27;20016;-76
2021/03/20 18:23:14;;;;;;;7.53;3.72;;;;;;;;;;5130495;27;20076;-75
2021/03/20 18:25:41;;;;;;;3.65;2.20;;;;;;;;;;5121094;27;20515;-77
2021/03/20 18:28:07;;;;;;;3.63;1.75;;;;;;;;;;5129226;27;20047;-76
2021/03/20 18:30:35;;;;;;;3.72;2.25;;;;;;;;;;5121143;27;20034;-76
2021/03/20 18:33:01;;;;;;;5.65;2.92;;;;;;;;;;5126530;27;20084;-75
2021/03/20 18:35:28;;;;;;;6.72;2.50;;;;;;;;;;5115909;27;20551;-75
2021/03/20 18:37:54;;;;;;;3.50;2.17;;;;;;;;;;5122762;27;20032;-76
2021/03/20 18:40:22;;;;;;;3.75;1.45;;;;;;;;;;5129190;27;20027;-75
2021/03/20 18:42:48;;;;;;;2.17;1.02;;;;;;;;;;5128581;27;20042;-74
2021/03/20 18:45:15;;;;;;;2.63;1.15;;;;;;;;;;5129743;27;20027;-73
2021/03/20 18:47:41;;;;;;;3.85;1.10;;;;;;;;;;5127913;27;20099;-73
2021/03/20 18:50:09;;;;;;;4.25;2.33;;;;;;;;;;5128221;27;20390;-75
2021/03/20 18:52:36;;;;;;;4.95;1.80;;;;;;;;;;5126443;27;20487;-75
2021/03/20 18:55:02;;;;;;;3.17;1.50;;;;;;;;;;5123663;27;20031;-76
